Time;durP1;ratioP1;P1;durP2;ratioP2;P2;SDS_P1;SDS_P2;PMS_P1;PMS_P2;Temp;Humidity;BMP_temperature;BMP_pressure;BME280_temperature;BME280_humidity;BME280_pressure;Samples;Min_cycle;Max_cycle;Signal;HPM_P1;HPM_P2
2023/05/02 00:01:54;;;;;;;19.23;7.88;;;10.30;99.90;;;;;;4998274;28;20045;-91
2023/05/02 00:04:20;;;;;;;13.70;6.78;;;10.30;99.90;;;;;;4997934;28;20453;-91
2023/05/02 00:06:45;;;;;;;17.05;7.40;;;10.10;99.90;;;;;;4979286;28;20041;-89
2023/05/02 00:09:12;;;;;;;12.68;6.38;;;10.10;99.90;;;;;;4980523;28;20038;-91
2023/05/02 00:11:38;;;;;;;12.90;6.20;;;10.00;99.90;;;;;;4981470;28;20065;-92
2023/05/02 00:14:03;;;;;;;10.90;5.95;;;9.90;99.90;;;;;;4981920;28;20069;-92
2023/05/02 00:16:29;;;;;;;11.57;5.20;;;9.90;99.90;;;;;;4996651;28;20040;-89
2023/05/02 00:18:55;;;;;;;11.95;5.95;;;9.80;99.90;;;;;;4978091;28;20057;-89
2023/05/02 00:21:23;;;;;;;13.98;6.43;;;9.80;99.90;;;;;;4997740;28;20092;-90
2023/05/02 00:23:52;;;;;;;14.23;5.80;;;9.70;99.90;;;;;;4980295;28;20042;-89
2023/05/02 00:26:17;;;;;;;13.57;5.85;;;9.80;99.90;;;;;;4986247;28;20044;-91
2023/05/02 00:28:43;;;;;;;13.30;5.93;;;9.70;99.90;;;;;;4981280;28;20034;-91
2023/05/02 00:31:15;;;;;;;13.55;5.68;;;9.70;99.90;;;;;;4980226;28;20110;-90
2023/05/02 00:33:41;;;;;;;9.40;5.22;;;9.80;99.90;;;;;;4978925;28;20046;-91
2023/05/02 00:36:17;;;;;;;11.73;6.43;;;9.70;99.90;;;;;;4993620;28;20057;-89
2023/05/02 00:38:43;;;;;;;15.32;6.30;;;9.80;99.90;;;;;;4984144;28;20049;-90
2023/05/02 00:41:09;;;;;;;11.07;5.78;;;9.70;99.90;;;;;;4981966;28;20037;-89
2023/05/02 00:43:36;;;;;;;10.93;5.47;;;9.70;99.90;;;;;;4982547;28;20038;-90
2023/05/02 00:46:02;;;;;;;8.55;5.00;;;9.70;99.90;;;;;;4980029;28;20433;-88
2023/05/02 00:48:27;;;;;;;13.25;5.78;;;9.70;99.90;;;;;;4994795;28;20204;-89
2023/05/02 00:50:54;;;;;;;15.00;5.32;;;9.70;99.90;;;;;;4978264;28;20133;-88
2023/05/02 00:53:20;;;;;;;8.18;5.38;;;9.70;99.90;;;;;;4979760;28;20037;-89
2023/05/02 00:55:45;;;;;;;11.18;5.05;;;9.70;99.90;;;;;;4998376;28;20071;-90
2023/05/02 00:58:13;;;;;;;13.00;4.90;;;9.70;99.90;;;;;;4996773;28;20349;-89
2023/05/02 01:01:19;;;;;;;9.68;4.30;;;9.70;99.90;;;;;;4999310;28;20034;-89
2023/05/02 01:04:02;;;;;;;9.38;4.97;;;9.70;99.90;;;;;;4969603;28;20157;-88
2023/05/02 01:06:40;;;;;;;11.45;4.32;;;9.70;99.90;;;;;;4998781;28;20038;-90
2023/05/02 01:09:39;;;;;;;10.18;4.63;;;9.70;99.90;;;;;;4985043;28;20049;-90
2023/05/02 01:12:09;;;;;;;12.00;4.60;;;9.70;99.90;;;;;;4998349;28;20052;-87
2023/05/02 01:14:42;;;;;;;8.15;4.00;;;9.60;99.90;;;;;;4997315;28;20058;-89
2023/05/02 01:17:12;;;;;;;11.98;4.32;;;9.60;99.90;;;;;;4998782;28;20120;-88
2023/05/02 01:19:51;;;;;;;9.63;4.10;;;9.60;99.90;;;;;;5001156;28;20065;-89
2023/05/02 01:22:19;;;;;;;9.65;4.43;;;9.50;99.90;;;;;;4980643;28;20674;-89
2023/05/02 01:25:10;;;;;;;8.82;4.03;;;9.50;99.90;;;;;;5001182;28;20110;-89
2023/05/02 01:27:54;;;;;;;13.52;4.30;;;9.50;99.90;;;;;;4997701;28;20045;-89
2023/05/02 01:30:22;;;;;;;15.02;3.97;;;9.50;99.90;;;;;;5000159;28;20554;-88
2023/05/02 01:32:51;;;;;;;9.40;4.13;;;9.60;99.90;;;;;;4981983;28;20137;-89
2023/05/02 01:35:19;;;;;;;12.10;4.97;;;9.60;99.90;;;;;;5000558;28;20042;-89
2023/05/02 01:37:47;;;;;;;8.48;4.60;;;9.60;99.90;;;;;;4998761;28;20175;-89
2023/05/02 01:40:16;;;;;;;9.55;4.38;;;9.60;99.90;;;;;;5000999;28;20041;-88
2023/05/02 01:42:43;;;;;;;11.18;4.47;;;9.60;99.90;;;;;;4984977;28;20070;-89
2023/05/02 01:45:11;;;;;;;13.27;4.68;;;9.60;99.90;;;;;;4997557;28;20474;-90
2023/05/02 01:47:37;;;;;;;10.02;4.40;;;9.60;99.90;;;;;;5000526;28;20120;-89
2023/05/02 01:50:10;;;;;;;13.55;4.75;;;9.50;99.90;;;;;;4983895;28;20565;-90
2023/05/02 01:52:37;;;;;;;18.13;5.82;;;9.50;99.90;;;;;;5001288;28;20121;-89
2023/05/02 01:55:08;;;;;;;14.77;5.47;;;9.50;99.90;;;;;;4979684;28;20038;-90
2023/05/02 01:57:35;;;;;;;18.20;5.25;;;9.40;99.90;;;;;;4998754;28;20116;-90
2023/05/02 02:00:02;;;;;;;15.15;4.32;;;9.40;99.90;;;;;;4997440;28;20206;-90
2023/05/02 02:02:29;;;;;;;21.20;4.78;;;9.10;99.90;;;;;;4982296;28;20132;-90
2023/05/02 02:04:56;;;;;;;16.23;5.20;;;8.80;99.90;;;;;;4985118;28;20042;-92
2023/05/02 02:07:22;;;;;;;17.52;5.57;;;8.70;99.90;;;;;;4986169;28;21600;-91
2023/05/02 02:09:48;;;;;;;14.73;4.78;;;8.80;99.90;;;;;;5001527;28;20042;-91
2023/05/02 02:12:23;;;;;;;18.92;6.10;;;8.60;99.90;;;;;;5000718;28;20052;-90
2023/05/02 02:15:26;;;;;;;17.27;5.13;;;8.50;99.90;;;;;;4987705;28;20502;-91
2023/05/02 02:18:01;;;;;;;17.73;5.43;;;8.50;99.90;;;;;;4984639;28;20056;-89
2023/05/02 02:20:31;;;;;;;19.77;6.10;;;8.50;99.90;;;;;;5000314;28;20100;-89
2023/05/02 02:23:04;;;;;;;14.18;5.22;;;8.50;99.90;;;;;;4985826;28;20312;-91
2023/05/02 02:25:31;;;;;;;22.25;5.20;;;8.50;99.90;;;;;;5000557;28;20069;-89
2023/05/02 02:27:57;;;;;;;16.27;5.38;;;8.50;99.90;;;;;;5002714;28;20039;-90
2023/05/02 02:30:23;;;;;;;18.38;5.05;;;8.50;99.90;;;;;;4984107;28;20034;-90
2023/05/02 02:32:48;;;;;;;28.15;5.53;;;8.40;99.90;;;;;;4982250;28;20111;-88
2023/05/02 02:35:14;;;;;;;16.15;5.13;;;8.50;99.90;;;;;;4980556;28;20065;-89
2023/05/02 02:37:50;;;;;;;17.30;5.00;;;8.50;99.90;;;;;;4984167;28;20493;-90
2023/05/02 02:40:30;;;;;;;19.30;5.72;;;8.40;99.90;;;;;;4996009;28;20040;-89
2023/05/02 02:43:06;;;;;;;21.88;5.22;;;8.40;99.90;;;;;;4997732;28;20135;-90
2023/05/02 02:45:51;;;;;;;18.30;5.47;;;8.30;99.90;;;;;;4997923;28;20504;-90
2023/05/02 02:48:39;;;;;;;22.83;6.25;;;8.30;99.90;;;;;;4986146;28;20506;-90
2023/05/02 02:51:18;;;;;;;28.02;6.53;;;8.30;99.90;;;;;;4977979;28;20129;-91
2023/05/02 02:54:08;;;;;;;24.08;5.43;;;8.10;99.90;;;;;;4982021;28;20375;-89
2023/05/02 02:56:50;;;;;;;17.25;5.43;;;8.10;99.90;;;;;;4983100;28;20046;-90
2023/05/02 02:59:27;;;;;;;19.38;5.13;;;8.00;99.90;;;;;;4998973;28;20086;-89
2023/05/02 03:02:09;;;;;;;20.17;5.45;;;8.00;99.90;;;;;;4983955;28;20385;-89
2023/05/02 03:04:41;;;;;;;15.82;5.65;;;7.90;99.90;;;;;;4980279;28;20046;-91
2023/05/02 03:07:07;;;;;;;14.23;5.15;;;7.90;99.90;;;;;;4983811;28;20042;-89
2023/05/02 03:09:47;;;;;;;22.67;5.35;;;7.90;99.90;;;;;;4999130;28;20072;-89
2023/05/02 03:12:16;;;;;;;22.25;4.72;;;7.80;99.90;;;;;;4983365;28;21032;-91
2023/05/02 03:14:42;;;;;;;20.98;5.35;;;7.80;99.90;;;;;;4979180;28;20058;-89
2023/05/02 03:17:08;;;;;;;19.50;5.20;;;7.70;99.90;;;;;;4984461;28;20046;-90
2023/05/02 03:19:34;;;;;;;15.93;4.85;;;7.70;99.90;;;;;;4998330;28;20115;-90
2023/05/02 03:22:00;;;;;;;19.02;4.68;;;7.70;99.90;;;;;;4998676;28;20096;-91
2023/05/02 03:24:28;;;;;;;17.25;4.65;;;7.60;99.90;;;;;;4998006;28;20041;-89
2023/05/02 03:26:58;;;;;;;17.17;4.95;;;7.50;99.90;;;;;;4998880;28;20041;-90
2023/05/02 03:29:25;;;;;;;12.50;4.30;;;7.50;99.90;;;;;;4983703;28;20053;-91
2023/05/02 03:31:50;;;;;;;13.98;4.30;;;7.40;99.90;;;;;;4985036;28;20041;-90
2023/05/02 03:34:16;;;;;;;17.85;5.00;;;7.40;99.90;;;;;;4987358;28;20428;-89
2023/05/02 03:36:42;;;;;;;13.50;4.00;;;7.40;99.90;;;;;;4983085;28;20053;-89
2023/05/02 03:39:08;;;;;;;14.48;3.80;;;7.40;99.90;;;;;;4984815;28;20054;-89
2023/05/02 03:41:37;;;;;;;19.83;3.58;;;7.40;99.90;;;;;;4997667;28;20038;-89
2023/05/02 03:44:02;;;;;;;12.35;4.97;;;7.40;99.90;;;;;;4982074;28;20049;-90
2023/05/02 03:46:28;;;;;;;11.23;3.67;;;7.40;99.90;;;;;;4994270;28;20469;-89
2023/05/02 03:48:57;;;;;;;13.23;3.40;;;7.40;99.90;;;;;;4997799;28;20042;-89
2023/05/02 03:51:22;;;;;;;12.32;3.53;;;7.40;99.90;;;;;;4993432;28;20041;-89
2023/05/02 03:53:48;;;;;;;13.02;3.97;;;7.40;99.90;;;;;;4982937;28;20048;-90
2023/05/02 03:56:18;;;;;;;10.75;3.50;;;7.30;99.90;;;;;;4995400;28;20034;-89
2023/05/02 03:58:45;;;;;;;8.15;3.42;;;7.40;99.90;;;;;;4997783;28;20050;-89
2023/05/02 04:01:17;;;;;;;11.40;3.50;;;7.30;99.90;;;;;;4980269;28;20045;-89
2023/05/02 04:03:43;;;;;;;12.48;3.58;;;7.30;99.90;;;;;;5000662;28;20061;-89
2023/05/02 04:06:09;;;;;;;9.00;3.58;;;7.30;99.90;;;;;;4996549;28;20897;-88
2023/05/02 04:08:35;;;;;;;12.75;3.13;;;7.30;99.90;;;;;;4983908;28;20180;-91
2023/05/02 04:11:01;;;;;;;11.63;2.78;;;7.30;99.90;;;;;;4982952;28;20053;-89
2023/05/02 04:13:28;;;;;;;10.13;3.35;;;7.30;99.90;;;;;;4999283;28;20046;-90
2023/05/02 04:15:53;;;;;;;11.63;3.08;;;7.30;99.90;;;;;;4998533;28;20120;-90
2023/05/02 04:18:19;;;;;;;11.95;3.15;;;7.30;99.90;;;;;;4984087;28;20140;-89
2023/05/02 04:20:47;;;;;;;7.82;2.70;;;7.20;99.90;;;;;;4982137;28;20046;-90
2023/05/02 04:23:13;;;;;;;8.88;2.45;;;7.20;99.90;;;;;;4979829;28;20042;-90
2023/05/02 04:25:39;;;;;;;7.65;2.90;;;7.20;99.90;;;;;;4983715;28;20042;-90
2023/05/02 04:28:05;;;;;;;10.18;2.92;;;7.20;99.90;;;;;;4983439;28;20184;-89
2023/05/02 04:30:31;;;;;;;9.63;2.38;;;7.20;99.90;;;;;;5002174;28;20041;-90
2023/05/02 04:32:57;;;;;;;7.00;2.50;;;7.20;99.90;;;;;;4999450;28;20049;-90
2023/05/02 04:35:22;;;;;;;7.22;2.50;;;7.20;99.90;;;;;;4987369;28;20489;-91
2023/05/02 04:37:48;;;;;;;9.40;2.72;;;7.20;99.90;;;;;;4997287;28;20144;-89
2023/05/02 04:40:19;;;;;;;8.00;2.65;;;7.10;99.90;;;;;;4979675;28;20048;-91
2023/05/02 04:42:45;;;;;;;8.75;2.50;;;7.20;99.90;;;;;;5012673;28;20073;-90
2023/05/02 04:45:11;;;;;;;7.05;2.60;;;7.20;99.90;;;;;;4982197;28;20144;-89
2023/05/02 04:47:37;;;;;;;8.38;2.53;;;7.10;99.90;;;;;;4982389;28;20053;-91
2023/05/02 04:50:03;;;;;;;9.70;2.50;;;7.10;99.90;;;;;;4982550;28;20074;-91
2023/05/02 04:52:30;;;;;;;8.70;2.30;;;7.10;99.90;;;;;;4977819;28;20064;-91
2023/05/02 04:54:55;;;;;;;5.78;2.40;;;7.10;99.90;;;;;;4998670;28;20260;-90
2023/05/02 04:57:21;;;;;;;6.15;2.17;;;7.10;93.40;;;;;;4984262;28;20245;-90
2023/05/02 04:59:50;;;;;;;6.90;2.70;;;7.20;1.00;;;;;;4998426;28;20173;-91
2023/05/02 05:02:15;;;;;;;9.80;2.63;;;7.10;99.90;;;;;;4981205;28;20497;-90
2023/05/02 05:04:41;;;;;;;9.77;2.78;;;7.20;99.90;;;;;;4983031;28;20040;-90
2023/05/02 05:07:07;;;;;;;11.32;2.85;;;7.20;99.90;;;;;;4980749;28;20073;-91
2023/05/02 05:09:32;;;;;;;12.23;3.15;;;7.20;1.00;;;;;;4978968;28;20050;-89
2023/05/02 05:11:58;;;;;;;8.43;2.80;;;7.20;1.00;;;;;;4996431;28;20034;-90
2023/05/02 05:14:23;;;;;;;7.97;3.00;;;7.20;99.90;;;;;;4980162;28;20046;-89
2023/05/02 05:16:49;;;;;;;7.25;2.42;;;7.20;1.00;;;;;;4982069;28;20072;-91
2023/05/02 05:19:15;;;;;;;6.35;2.72;;;7.20;1.00;;;;;;4981680;28;20294;-91
2023/05/02 05:21:40;;;;;;;13.93;4.07;;;7.20;99.90;;;;;;4998697;28;20046;-90
2023/05/02 05:24:07;;;;;;;11.02;3.53;;;7.20;99.90;;;;;;4998764;28;20042;-90
2023/05/02 05:26:32;;;;;;;12.07;3.35;;;7.10;14.60;;;;;;5000012;28;20149;-90
2023/05/02 05:28:58;;;;;;;14.20;3.75;;;7.20;99.90;;;;;;4983647;28;20568;-91
2023/05/02 05:31:24;;;;;;;12.50;3.22;;;7.20;1.00;;;;;;4981547;28;20126;-90
2023/05/02 05:33:52;;;;;;;8.98;3.20;;;7.20;95.10;;;;;;4981698;28;20143;-89
2023/05/02 05:36:18;;;;;;;12.98;3.40;;;7.20;47.50;;;;;;4980398;28;20701;-90
2023/05/02 05:38:45;;;;;;;7.75;2.85;;;7.30;99.90;;;;;;4978422;28;20253;-90
2023/05/02 05:41:10;;;;;;;9.07;3.00;;;7.30;1.00;;;;;;4984698;28;20046;-88
2023/05/02 05:43:36;;;;;;;12.07;3.53;;;7.40;1.00;;;;;;4998252;28;20050;-90
2023/05/02 05:46:02;;;;;;;10.57;3.30;;;7.30;1.00;;;;;;4999121;28;20045;-90
2023/05/02 05:48:28;;;;;;;12.30;3.75;;;7.30;99.90;;;;;;4987234;28;20475;-90
2023/05/02 05:50:56;;;;;;;8.25;3.30;;;7.30;99.90;;;;;;4982485;28;20038;-90
2023/05/02 05:53:22;;;;;;;10.52;3.40;;;7.30;66.50;;;;;;4987039;28;20466;-89
2023/05/02 05:55:47;;;;;;;12.63;3.50;;;7.30;99.90;;;;;;4980748;28;20116;-90
2023/05/02 05:58:14;;;;;;;10.77;3.45;;;7.30;1.00;;;;;;4985316;28;20061;-89
2023/05/02 06:00:41;;;;;;;11.93;3.80;;;7.30;99.90;;;;;;4988472;28;20361;-90
2023/05/02 06:03:06;;;;;;;15.52;3.50;;;7.40;99.90;;;;;;4984671;28;20042;-91
2023/05/02 06:05:32;;;;;;;10.68;4.75;;;7.30;99.90;;;;;;4986361;28;20030;-89
2023/05/02 06:07:58;;;;;;;11.02;4.25;;;7.40;99.90;;;;;;4999507;28;20046;-89
2023/05/02 06:10:25;;;;;;;17.42;4.07;;;7.30;99.90;;;;;;5002097;28;20069;-90
2023/05/02 06:12:52;;;;;;;14.98;3.97;;;7.30;1.00;;;;;;4999271;28;20033;-89
2023/05/02 06:15:17;;;;;;;12.30;4.03;;;7.30;1.00;;;;;;4999410;28;20062;-90
2023/05/02 06:17:43;;;;;;;11.48;3.22;;;7.40;99.90;;;;;;4983068;28;20061;-89
2023/05/02 06:20:09;;;;;;;11.32;3.80;;;7.50;99.90;;;;;;4999980;28;20412;-89
2023/05/02 06:22:35;;;;;;;7.97;3.10;;;7.50;1.00;;;;;;5001348;28;20128;-89
2023/05/02 06:25:04;;;;;;;10.30;3.40;;;7.60;99.90;;;;;;4983475;28;20505;-88
2023/05/02 06:27:30;;;;;;;9.82;3.10;;;7.50;99.90;;;;;;4983239;28;20057;-90
2023/05/02 06:29:56;;;;;;;9.05;3.08;;;7.60;99.90;;;;;;4984975;28;20042;-88
2023/05/02 06:32:21;;;;;;;14.05;3.65;;;7.60;94.00;;;;;;4985028;28;20389;-89
2023/05/02 06:34:47;;;;;;;21.20;4.03;;;7.70;1.00;;;;;;4983257;28;20052;-90
2023/05/02 06:37:13;;;;;;;8.48;3.35;;;7.70;1.00;;;;;;4988435;28;20041;-90
2023/05/02 06:39:38;;;;;;;13.02;3.83;;;7.70;99.90;;;;;;4996381;28;20053;-90
2023/05/02 06:42:04;;;;;;;10.05;3.28;;;7.70;99.90;;;;;;4981623;28;20216;-90
2023/05/02 06:44:30;;;;;;;16.27;4.70;;;7.60;1.00;;;;;;4996565;28;20114;-89
2023/05/02 06:46:55;;;;;;;10.75;3.30;;;7.60;1.00;;;;;;4984830;28;20038;-89
2023/05/02 06:49:22;;;;;;;11.55;3.67;;;7.60;99.90;;;;;;4982446;28;20038;-89
2023/05/02 06:51:47;;;;;;;14.23;3.55;;;7.60;99.90;;;;;;5018529;28;20041;-89
2023/05/02 06:54:16;;;;;;;14.60;3.15;;;7.60;99.90;;;;;;4986594;28;20482;-91
2023/05/02 06:56:42;;;;;;;7.78;3.25;;;7.60;99.90;;;;;;4983138;28;20038;-88
2023/05/02 06:59:08;;;;;;;10.20;3.60;;;7.70;99.90;;;;;;4999747;28;20751;-90
2023/05/02 07:01:36;;;;;;;11.68;3.20;;;7.80;99.90;;;;;;4998879;28;20107;-91
2023/05/02 07:04:04;;;;;;;11.63;3.42;;;7.80;99.90;;;;;;4985234;28;20053;-90
2023/05/02 07:06:30;;;;;;;8.65;3.17;;;7.70;1.00;;;;;;4983281;28;20176;-89
2023/05/02 07:08:56;;;;;;;5.00;2.92;;;7.70;99.90;;;;;;4984417;28;20042;-90
2023/05/02 07:11:22;;;;;;;9.88;2.97;;;7.70;1.00;;;;;;4997828;28;20049;-89
2023/05/02 07:13:51;;;;;;;10.63;3.08;;;7.70;1.00;;;;;;4981914;28;20361;-88
2023/05/02 07:16:17;;;;;;;7.30;2.70;;;7.70;1.00;;;;;;4982260;28;20038;-90
2023/05/02 07:18:44;;;;;;;11.38;2.92;;;7.80;1.00;;;;;;4998900;28;20057;-90
2023/05/02 07:21:10;;;;;;;12.82;3.30;;;7.80;99.90;;;;;;4984208;28;20046;-88
2023/05/02 07:23:36;;;;;;;8.50;3.00;;;7.80;1.00;;;;;;4996831;28;20070;-90
2023/05/02 07:26:02;;;;;;;9.88;3.53;;;7.90;1.00;;;;;;5018209;28;20176;-89
2023/05/02 07:28:28;;;;;;;8.55;2.78;;;8.00;99.90;;;;;;4982621;28;20449;-89
2023/05/02 07:30:54;;;;;;;8.68;2.60;;;8.00;99.90;;;;;;4998557;28;20038;-89
2023/05/02 07:33:20;;;;;;;11.02;3.47;;;8.10;87.40;;;;;;4979209;28;20567;-90
2023/05/02 07:35:46;;;;;;;7.53;2.72;;;8.20;92.60;;;;;;4997278;28;20070;-89
2023/05/02 07:38:12;;;;;;;10.35;2.88;;;8.10;99.90;;;;;;5000239;28;20103;-89
2023/05/02 07:40:38;;;;;;;12.05;3.58;;;8.20;1.00;;;;;;5001148;28;20045;-90
2023/05/02 07:43:03;;;;;;;8.23;2.95;;;8.10;99.90;;;;;;4999885;28;20556;-89
2023/05/02 07:45:29;;;;;;;8.38;3.15;;;8.20;99.90;;;;;;4980184;28;20113;-90
2023/05/02 07:47:54;;;;;;;12.55;3.25;;;8.30;1.00;;;;;;4981956;28;20057;-90
2023/05/02 07:50:20;;;;;;;10.82;2.95;;;8.30;1.00;;;;;;4983456;28;20060;-91
2023/05/02 07:52:46;;;;;;;11.38;3.10;;;8.40;99.90;;;;;;4996388;28;20068;-90
2023/05/02 07:55:12;;;;;;;13.25;2.88;;;8.30;99.90;;;;;;4979297;28;20080;-90
2023/05/02 07:57:37;;;;;;;10.57;3.10;;;8.50;1.00;;;;;;4983571;28;20357;-89
2023/05/02 08:00:09;;;;;;;8.48;2.92;;;8.50;99.90;;;;;;4977662;28;20123;-89
2023/05/02 08:02:35;;;;;;;9.90;3.05;;;8.60;99.90;;;;;;4999796;28;20045;-90
2023/05/02 08:05:02;;;;;;;8.68;3.22;;;8.60;99.90;;;;;;4997604;28;20060;-91
2023/05/02 08:07:28;;;;;;;8.80;2.90;;;8.80;99.90;;;;;;4983575;28;20120;-90
2023/05/02 08:09:53;;;;;;;7.68;2.97;;;8.70;99.90;;;;;;4980236;28;20628;-89
2023/05/02 08:12:19;;;;;;;7.57;2.92;;;9.00;1.00;;;;;;4997541;28;20060;-90
2023/05/02 08:14:45;;;;;;;6.78;2.30;;;9.10;99.90;;;;;;4984236;28;20211;-90
2023/05/02 08:17:11;;;;;;;10.93;2.92;;;9.00;99.90;;;;;;4982643;28;20497;-90
2023/05/02 08:19:36;;;;;;;7.18;2.70;;;9.20;99.90;;;;;;4996823;28;20041;-90
2023/05/02 08:22:02;;;;;;;7.72;2.53;;;9.10;99.90;;;;;;4982699;28;20041;-89
2023/05/02 08:24:29;;;;;;;7.72;3.28;;;9.00;99.90;;;;;;4997265;28;20076;-89
2023/05/02 08:26:55;;;;;;;8.48;2.65;;;8.70;99.90;;;;;;4996903;28;20107;-89
2023/05/02 08:29:23;;;;;;;7.88;2.70;;;8.60;98.10;;;;;;4981435;28;20046;-90
2023/05/02 08:31:48;;;;;;;5.13;2.50;;;8.60;99.90;;;;;;4998014;28;20046;-90
2023/05/02 08:34:14;;;;;;;6.32;2.42;;;8.60;99.90;;;;;;4997864;28;20099;-89
2023/05/02 08:36:40;;;;;;;7.07;3.13;;;8.40;1.00;;;;;;4999764;28;20576;-90
2023/05/02 08:39:07;;;;;;;4.80;1.98;;;8.30;99.90;;;;;;4980868;28;21255;-89
2023/05/02 08:41:32;;;;;;;5.38;1.80;;;8.50;99.90;;;;;;4995732;28;20125;-90
2023/05/02 08:43:58;;;;;;;5.03;2.03;;;8.60;99.90;;;;;;4981206;28;20184;-90
2023/05/02 08:46:27;;;;;;;7.40;2.17;;;8.70;99.90;;;;;;4983273;28;20060;-89
2023/05/02 08:48:54;;;;;;;4.57;1.90;;;8.70;1.00;;;;;;5014834;28;20065;-89
2023/05/02 08:51:23;;;;;;;7.40;2.03;;;9.00;1.00;;;;;;4995255;28;20520;-89
2023/05/02 08:53:50;;;;;;;4.28;1.83;;;9.10;99.90;;;;;;4981640;28;20105;-89
2023/05/02 08:56:16;;;;;;;5.40;1.83;;;9.50;99.90;;;;;;4997672;28;20042;-89
2023/05/02 08:58:42;;;;;;;4.10;1.55;;;9.70;99.90;;;;;;4998706;28;20168;-89
2023/05/02 09:01:34;;;;;;;3.88;1.90;;;9.70;1.00;;;;;;4981649;28;20661;-90
2023/05/02 09:04:01;;;;;;;3.60;1.58;;;9.40;1.00;;;;;;4993319;28;20085;-89
2023/05/02 09:06:28;;;;;;;3.83;1.40;;;9.70;99.40;;;;;;4983252;28;20038;-91
2023/05/02 09:08:53;;;;;;;4.93;1.73;;;9.30;99.90;;;;;;4994604;28;20043;-91
2023/05/02 09:11:20;;;;;;;6.18;1.48;;;9.50;99.90;;;;;;4997278;28;20051;-89
2023/05/02 09:13:46;;;;;;;3.80;1.40;;;9.70;99.90;;;;;;4977769;28;20502;-89
2023/05/02 09:16:13;;;;;;;2.60;1.40;;;9.80;99.90;;;;;;4995674;28;20117;-90
2023/05/02 09:18:42;;;;;;;4.65;1.67;;;9.90;99.90;;;;;;4998517;28;20042;-89
2023/05/02 09:21:19;;;;;;;5.82;1.67;;;10.70;99.90;;;;;;4989620;28;20050;-89
2023/05/02 09:23:48;;;;;;;6.30;1.48;;;10.10;99.90;;;;;;4978168;28;20061;-90
2023/05/02 09:26:30;;;;;;;4.22;1.50;;;9.80;99.90;;;;;;4986136;28;20077;-89
2023/05/02 09:28:57;;;;;;;4.90;1.60;;;9.90;99.90;;;;;;5000384;28;20617;-89
2023/05/02 09:31:25;;;;;;;4.28;1.75;;;9.70;99.90;;;;;;5000594;28;20456;-89
2023/05/02 09:33:54;;;;;;;4.78;1.90;;;9.70;1.00;;;;;;4986600;28;20371;-90
2023/05/02 09:36:20;;;;;;;6.75;2.30;;;9.80;1.00;;;;;;4986535;28;20034;-89
2023/05/02 09:38:48;;;;;;;4.72;1.98;;;9.80;99.90;;;;;;4983628;28;20058;-89
2023/05/02 09:41:14;;;;;;;7.05;1.73;;;9.70;99.90;;;;;;5000395;28;20033;-90
2023/05/02 09:43:40;;;;;;;7.57;1.70;;;9.70;99.90;;;;;;4986838;28;20113;-89
2023/05/02 09:46:10;;;;;;;4.78;1.60;;;9.60;99.90;;;;;;4999098;28;20046;-90
2023/05/02 09:48:56;;;;;;;5.30;1.40;;;9.50;1.00;;;;;;5014473;28;20046;-89
2023/05/02 09:51:24;;;;;;;3.92;1.70;;;9.50;1.00;;;;;;4981971;28;20039;-90
2023/05/02 09:53:55;;;;;;;4.88;1.80;;;9.50;99.90;;;;;;4994296;28;20053;-91
2023/05/02 09:56:21;;;;;;;3.22;1.30;;;9.30;1.00;;;;;;5000163;28;20072;-89
2023/05/02 09:58:47;;;;;;;4.50;1.38;;;9.50;99.90;;;;;;4983779;28;20089;-88
2023/05/02 10:01:19;;;;;;;4.85;1.58;;;9.60;99.90;;;;;;4981904;28;20034;-88
2023/05/02 10:03:48;;;;;;;6.50;1.58;;;9.90;82.00;;;;;;4997251;28;20494;-89
2023/05/02 10:06:19;;;;;;;2.60;1.25;;;10.20;99.90;;;;;;4997951;28;20124;-87
2023/05/02 10:08:48;;;;;;;3.63;1.60;;;10.20;99.90;;;;;;4997676;28;20046;-89
2023/05/02 10:11:14;;;;;;;7.18;1.50;;;10.20;99.90;;;;;;4984930;28;20710;-89
2023/05/02 10:13:42;;;;;;;4.95;1.60;;;10.50;1.00;;;;;;4999202;28;20057;-90
2023/05/02 10:16:11;;;;;;;3.60;1.65;;;10.70;99.90;;;;;;4995987;28;20042;-88
2023/05/02 10:19:02;;;;;;;2.55;1.33;;;10.60;99.90;;;;;;4980954;28;20038;-89
2023/05/02 10:21:28;;;;;;;3.00;1.38;;;10.30;99.90;;;;;;4981268;28;20041;-89
2023/05/02 10:23:56;;;;;;;5.72;2.05;;;10.00;99.90;;;;;;4981501;28;20053;-89
2023/05/02 10:26:22;;;;;;;3.75;1.10;;;10.20;52.40;;;;;;4980309;28;20057;-89
2023/05/02 10:28:48;;;;;;;3.42;1.30;;;10.10;99.90;;;;;;4986000;28;20045;-88
2023/05/02 10:31:16;;;;;;;3.83;1.40;;;10.10;99.90;;;;;;4984112;28;20116;-89
2023/05/02 10:33:42;;;;;;;2.30;1.30;;;10.30;99.90;;;;;;4981359;28;20125;-89
2023/05/02 10:36:11;;;;;;;3.65;1.05;;;10.30;99.90;;;;;;4978910;28;20110;-89
2023/05/02 10:38:41;;;;;;;4.35;1.70;;;10.30;99.90;;;;;;4980181;28;20049;-89
2023/05/02 10:41:29;;;;;;;4.28;1.40;;;10.20;99.90;;;;;;4984173;28;20046;-89
2023/05/02 10:43:55;;;;;;;6.03;1.60;;;10.00;99.90;;;;;;4998575;28;20064;-86
2023/05/02 10:46:40;;;;;;;3.08;1.23;;;10.20;99.90;;;;;;4994101;28;20053;-88
2023/05/02 10:49:07;;;;;;;2.28;1.20;;;10.40;1.00;;;;;;4997165;28;20552;-88
2023/05/02 10:51:33;;;;;;;3.10;1.20;;;10.40;99.90;;;;;;4994636;28;20034;-88
2023/05/02 10:54:18;;;;;;;2.85;1.35;;;10.30;99.90;;;;;;4979234;28;20860;-88
2023/05/02 10:57:02;;;;;;;7.40;1.40;;;10.30;63.00;;;;;;4984631;28;20219;-88
2023/05/02 10:59:30;;;;;;;4.70;1.70;;;10.20;1.00;;;;;;4997701;28;20977;-88
2023/05/02 11:01:56;;;;;;;2.83;1.45;;;10.20;1.00;;;;;;4979258;28;20102;-88
2023/05/02 11:04:22;;;;;;;4.88;1.27;;;10.20;1.00;;;;;;4993449;28;20568;-88
2023/05/02 11:07:01;;;;;;;2.60;1.45;;;10.00;77.20;;;;;;4981453;28;20080;-88
2023/05/02 11:09:26;;;;;;;6.05;1.70;;;10.20;99.90;;;;;;4982555;28;20108;-89
2023/05/02 11:11:55;;;;;;;5.78;1.85;;;10.20;1.00;;;;;;4985828;28;20045;-89
2023/05/02 11:14:29;;;;;;;4.60;1.92;;;9.80;1.00;;;;;;4981952;28;20052;-88
2023/05/02 11:16:58;;;;;;;8.25;1.90;;;9.60;99.90;;;;;;4993460;28;20042;-89
2023/05/02 11:19:29;;;;;;;4.35;1.65;;;9.70;99.90;;;;;;4979241;28;20501;-88
2023/05/02 11:22:17;;;;;;;8.18;2.08;;;10.10;99.90;;;;;;4995185;28;20041;-88
2023/05/02 11:24:48;;;;;;;3.97;1.98;;;10.50;99.90;;;;;;5012613;28;20089;-89
2023/05/02 11:27:37;;;;;;;4.70;1.77;;;10.20;1.00;;;;;;4978879;28;20130;-89
2023/05/02 11:30:08;;;;;;;4.13;1.85;;;10.50;99.90;;;;;;4979851;28;20054;-90
2023/05/02 11:32:48;;;;;;;4.78;1.63;;;10.60;99.90;;;;;;4998282;28;20999;-88
2023/05/02 11:35:21;;;;;;;4.15;1.63;;;10.60;1.00;;;;;;4994566;28;20076;-88
2023/05/02 11:37:58;;;;;;;5.07;1.77;;;10.50;1.00;;;;;;4979461;28;20430;-89
2023/05/02 11:40:25;;;;;;;6.22;1.80;;;10.70;99.90;;;;;;4996778;28;20436;-88
2023/05/02 11:42:52;;;;;;;5.13;1.60;;;10.40;99.90;;;;;;4995033;28;20042;-89
2023/05/02 11:45:22;;;;;;;5.35;2.00;;;10.20;99.90;;;;;;4976829;28;20050;-89
2023/05/02 11:47:50;;;;;;;6.40;1.73;;;10.30;1.00;;;;;;4980670;28;20053;-89
2023/05/02 11:50:19;;;;;;;3.10;1.50;;;10.20;99.90;;;;;;4996443;28;20060;-89
2023/05/02 11:52:46;;;;;;;3.33;1.80;;;10.60;99.90;;;;;;4981488;28;20132;-89
2023/05/02 11:55:13;;;;;;;5.78;1.58;;;10.40;1.00;;;;;;4982241;28;20058;-88
2023/05/02 11:57:39;;;;;;;4.30;1.98;;;10.60;99.90;;;;;;4997682;28;20062;-89
2023/05/02 12:00:07;;;;;;;4.07;1.50;;;10.50;99.90;;;;;;4995721;28;20050;-89
2023/05/02 12:02:36;;;;;;;8.27;1.80;;;10.70;1.00;;;;;;4996080;28;20137;-88
2023/05/02 12:05:04;;;;;;;3.45;1.33;;;11.00;99.90;;;;;;4980495;28;20054;-87
2023/05/02 12:07:48;;;;;;;4.97;1.42;;;11.70;99.90;;;;;;4980209;28;20046;-87
2023/05/02 12:10:14;;;;;;;5.28;1.50;;;11.30;99.90;;;;;;4996077;28;20053;-89
2023/05/02 12:12:42;;;;;;;5.15;1.45;;;11.30;98.70;;;;;;4995622;28;20057;-88
2023/05/02 12:15:12;;;;;;;4.50;1.40;;;10.70;99.90;;;;;;4978943;28;20501;-89
2023/05/02 12:17:40;;;;;;;3.22;1.40;;;10.30;99.90;;;;;;4994147;28;20481;-90
2023/05/02 12:20:08;;;;;;;5.05;1.08;;;10.00;99.90;;;;;;4980769;28;20042;-88
2023/05/02 12:22:34;;;;;;;5.63;1.10;;;9.80;99.90;;;;;;4993095;28;20069;-88
2023/05/02 12:25:00;;;;;;;1.88;0.73;;;10.00;90.90;;;;;;4981751;28;20052;-89
2023/05/02 12:27:29;;;;;;;3.58;1.23;;;10.20;99.90;;;;;;4983223;28;20041;-89
2023/05/02 12:29:56;;;;;;;1.83;0.82;;;10.40;99.90;;;;;;4994766;28;20041;-88
2023/05/02 12:32:30;;;;;;;3.30;1.02;;;10.60;1.00;;;;;;4981653;28;20398;-88
2023/05/02 12:34:57;;;;;;;1.48;0.80;;;10.80;99.90;;;;;;4995278;28;20215;-89
2023/05/02 12:37:24;;;;;;;2.28;1.05;;;11.10;99.90;;;;;;4979353;28;20105;-88
2023/05/02 12:39:52;;;;;;;2.13;0.90;;;11.00;9.10;;;;;;4983512;28;20092;-89
2023/05/02 12:42:19;;;;;;;3.55;0.90;;;11.10;99.90;;;;;;4979857;28;20114;-88
2023/05/02 12:44:47;;;;;;;2.63;1.00;;;11.00;99.90;;;;;;4993570;28;20517;-88
2023/05/02 12:47:15;;;;;;;2.45;0.82;;;10.90;99.90;;;;;;4993151;28;20042;-88
2023/05/02 12:49:55;;;;;;;4.18;1.00;;;10.90;99.90;;;;;;4977724;28;20320;-88
2023/05/02 12:52:40;;;;;;;4.57;1.17;;;10.90;99.90;;;;;;4977925;28;20394;-88
2023/05/02 12:55:20;;;;;;;1.48;0.65;;;10.70;99.90;;;;;;4979114;28;20045;-89
2023/05/02 12:57:46;;;;;;;2.55;0.70;;;10.50;99.90;;;;;;4993238;28;20390;-89
2023/05/02 13:00:15;;;;;;;2.97;1.10;;;10.60;99.90;;;;;;4980450;28;20444;-88
2023/05/02 13:02:40;;;;;;;4.97;1.25;;;10.50;99.90;;;;;;4981575;28;20056;-88